AirNav   ProFlight Series 2 Aviation Headset
 
 1059 users online  

MI85 Community Health Center of Branch County Heliport
Coldwater, Michigan, USA

GOING TO COLDWATER?


FAA INFORMATION EFFECTIVE 18 JUNE 2020

Location

FAA Identifier: MI85
Lat/Long: 41-56-16.5800N 084-59-21.1500W
41-56.276333N 084-59.352500W
41.9379389,-84.9892083
(estimated)
Elevation: 959 ft. / 292 m (estimated)
Variation: 04W (1990)
From city: 1 mile N of COLDWATER, MI
Time zone: UTC -4 (UTC -5 during Standard Time)
Zip code: 49036

Heliport Operations

Heliport use: Private use, MEDICAL USE.
Activation date: 05/1992
Control tower: no
ARTCC: CHICAGO CENTER
FSS: LANSING FLIGHT SERVICE STATION
Attendance: CONTINUOUS
Wind indicator: yes
Segmented circle: no
Lights: SS-SR
Beacon: white-green-yellow (heliport)
Operates sunset to sunrise.

Heliport Communications

WX AWOS-3 at OEB (2.8 nm W): 118.125 (517-279-1810)
WX AWOS-3 at JYM (18 nm E): 121.025 (517-437-5638)
WX AWOS-3 at ANQ (18 nm S): 118.175 (260-668-5630)
WX AWOS-3 at RMY (19 nm N): 120.025 (269-781-9070)

Nearby radio navigation aids

VOR radial/distance  VOR name  Freq  Var
LFDr238/12.5LITCHFIELD VOR/DME111.2005W
AZOr127/30.9KALAMAZOO VOR/DME109.0001W

 
NDB name  Hdg/Dist  Freq  Var  ID
STURGIS073/21.238204WIRS .. .-. ...

Heliport Services

Runway Information

Helipad H1

Dimensions: 100 x 100 ft. / 30 x 30 m
Surface: concrete
Runway edge lights: PERI
Latitude: 41-56.276333N
Longitude: 084-59.352500W
Elevation: 959.0 ft.
Traffic pattern: leftleft

Heliport Ownership and Management from official FAA records

Ownership: Privately-owned
Owner: PROMEDICA COLDWATER REG. HOSPITAL
274 EAST CHICAGO
COLDWATER, MI 49036-2088
Phone (517) 279-5400
Manager: BILL EARL
274 EAST CHICAGO
COLDWATER, MI 49036
Phone 517-279-5492

Additional Remarks

FOR CD CTC CHICAGO ARTCC AT 630-906-8921.

Instrument Procedures

There are no published instrument procedures at MI85.

Some nearby airports with instrument procedures:

KOEB - Branch County Memorial Airport (3 nm W)
KJYM - Hillsdale Municipal Airport (18 nm E)
KANQ - Tri-State Steuben County Airport (18 nm S)
KRMY - Brooks Field Airport (19 nm N)
KIRS - Kirsch Municipal Airport (21 nm W)
 
Loc | Ops | Rwys | IFR | FBO | Links
Com | Nav | Svcs | Stats | Notes
Area around MI85 (Community Health Center of Branch County Heliport)
 
Road maps at: MapQuest Bing Google
 
Aerial photo
No photo
 
Sectional chart

 
Airport distance calculator
Flying to Community Health Center of Branch County Heliport? Find the distance to fly.

From to MI85

Sunrise and sunset
Times for 12-Jul-2020
 Local
(UTC-4)
 Zulu
(UTC)
Morning civil twilight05:4409:44
Sunrise06:1710:17
Sunset21:1401:14
Evening civil twilight21:4801:48

Current date and time
Zulu (UTC)  12-Jul-2020 18:19:03
Local (UTC-4)  12-Jul-2020 14:19:03
 
METAR
KOEB 
2nm SW 
121755Z AUTO 33006KT 10SM SCT038 BKN046 25/17 A2984 RMK AO2 T02480165 10261 20191
KRMY 
18nm N 
121755Z AUTO 32004KT 10SM BKN043 BKN070 BKN080 26/16 A2984 RMK AO2 T02550156 10263 20173
KJYM 
18nm E 
121755Z AUTO 36007KT 10SM SCT036 SCT050 26/16 A2984 RMK AO2 T02610160 10264 20185
KANQ 
18nm S 
121755Z AUTO 32005KT 10SM SCT033 SCT060 SCT095 25/18 A2983 RMK AO2 LTG DSNT SE AND S AND NW
TAF
KBTL 
25nm NW 
121720Z 1218/1318 35011G20KT P6SM BKN045 FM130100 35005KT P6SM FEW045
KJXN 
30nm NE 
121720Z 1218/1318 34010G18KT P6SM BKN045 FM130100 35005KT P6SM FEW045
KAZO 
31nm NW 
121720Z 1218/1318 35011G20KT P6SM BKN045 FM130100 35005KT P6SM FEW045
NOTAMs
Click for the latest NOTAMs
NOTAMs are issued by the DoD/FAA and will open in a separate window not controlled by AirNav.

 

 
 

Would you like to see your business listed on this page?

 If your business provides an interesting product or service to pilots, flight crews, aircraft, or users of the Community Health Center of Branch County Heliport, you should consider listing it here.  To start the listing process, click on the button below
 
Add a business
 

Other Pages about Community Health Center of Branch County Heliport

Update a link
 
Copyright © AirNav, LLC. All rights reserved. Privacy Policy  Contact